Time;durP1;ratioP1;P1;durP2;ratioP2;P2;SDS_P1;SDS_P2;PMS_P1;PMS_P2;Temp;Humidity;BMP_temperature;BMP_pressure;BME280_temperature;BME280_humidity;BME280_pressure;Samples;Min_cycle;Max_cycle;Signal;HPM_P1;HPM_P2
2024/02/13 00:01:07;;;;;;;18.20;12.35;;;7.90;99.90;;;;;;5099546;28;20042;-68
2024/02/13 00:03:53;;;;;;;22.00;11.30;;;8.00;99.90;;;;;;5106325;28;20085;-68
2024/02/13 00:06:40;;;;;;;20.50;12.75;;;7.90;99.90;;;;;;5096780;28;20551;-69
2024/02/13 00:09:26;;;;;;;20.27;12.77;;;7.90;99.90;;;;;;5101676;28;20064;-68
2024/02/13 00:12:13;;;;;;;22.45;13.10;;;8.00;99.90;;;;;;5094474;28;20051;-69
2024/02/13 00:15:00;;;;;;;20.55;12.40;;;8.00;99.90;;;;;;5103754;28;20048;-68
2024/02/13 00:17:47;;;;;;;20.70;12.75;;;8.00;99.90;;;;;;5099832;28;20498;-68
2024/02/13 00:20:33;;;;;;;21.33;12.82;;;8.00;99.90;;;;;;5099084;28;20095;-68
2024/02/13 00:23:19;;;;;;;19.98;12.68;;;8.00;99.90;;;;;;5095674;28;20039;-68
2024/02/13 00:26:09;;;;;;;22.67;13.80;;;8.00;99.90;;;;;;5096416;28;20046;-68
2024/02/13 00:28:56;;;;;;;23.02;13.80;;;8.00;99.90;;;;;;5091321;28;20101;-68
2024/02/13 00:31:42;;;;;;;20.50;12.40;;;8.00;99.90;;;;;;5099070;28;20044;-68
2024/02/13 00:34:28;;;;;;;19.90;12.45;;;8.00;99.90;;;;;;5096802;28;20032;-68
2024/02/13 00:37:14;;;;;;;20.83;12.65;;;8.00;99.90;;;;;;5096412;28;20040;-68
2024/02/13 00:40:02;;;;;;;18.38;11.55;;;8.00;99.90;;;;;;5086232;28;20036;-68
2024/02/13 00:42:49;;;;;;;20.10;11.55;;;8.10;99.90;;;;;;5101084;28;20047;-68
2024/02/13 00:45:35;;;;;;;18.98;11.80;;;8.10;99.90;;;;;;5099455;28;20044;-69
2024/02/13 00:48:21;;;;;;;17.88;12.07;;;8.10;99.90;;;;;;5106072;28;20048;-69
2024/02/13 00:51:07;;;;;;;19.45;11.85;;;8.20;99.90;;;;;;5105738;28;20048;-69
2024/02/13 00:53:53;;;;;;;18.20;11.57;;;8.10;99.90;;;;;;5100049;28;20483;-69
2024/02/13 00:56:39;;;;;;;18.88;12.95;;;8.10;99.90;;;;;;5082185;28;20067;-68
2024/02/13 00:59:25;;;;;;;19.02;11.57;;;8.10;99.90;;;;;;5101115;28;20467;-68
2024/02/13 01:02:12;;;;;;;19.08;12.00;;;8.10;99.90;;;;;;5103313;28;20072;-69
2024/02/13 01:04:58;;;;;;;17.40;11.07;;;8.10;99.90;;;;;;5106815;28;20052;-69
2024/02/13 01:07:43;;;;;;;19.85;12.10;;;8.10;99.90;;;;;;5103828;28;20048;-68
2024/02/13 01:10:30;;;;;;;18.25;11.48;;;8.10;99.90;;;;;;5102043;28;20048;-68
2024/02/13 01:13:15;;;;;;;17.35;10.93;;;8.10;99.90;;;;;;5108191;28;20052;-69
2024/02/13 01:16:03;;;;;;;22.17;12.98;;;8.00;99.90;;;;;;5105929;28;20511;-67
2024/02/13 01:18:51;;;;;;;16.27;10.68;;;8.00;99.90;;;;;;5103149;28;20496;-67
2024/02/13 01:21:37;;;;;;;19.85;11.30;;;8.00;99.90;;;;;;5103419;28;20044;-67
2024/02/13 01:24:26;;;;;;;17.67;11.02;;;8.00;99.90;;;;;;5094750;28;20408;-67
2024/02/13 01:27:13;;;;;;;16.27;9.75;;;8.00;99.90;;;;;;5110599;28;20043;-67
2024/02/13 01:29:59;;;;;;;16.85;10.45;;;8.00;99.90;;;;;;5093241;28;20044;-67
2024/02/13 01:32:48;;;;;;;15.93;10.38;;;8.00;99.90;;;;;;5097938;28;20480;-67
2024/02/13 01:35:34;;;;;;;15.50;9.85;;;7.90;99.90;;;;;;5105524;28;20556;-67
2024/02/13 01:38:20;;;;;;;18.25;12.20;;;7.90;99.90;;;;;;5091441;28;20124;-67
2024/02/13 01:41:06;;;;;;;18.23;11.07;;;7.90;99.90;;;;;;5093674;28;20042;-67
2024/02/13 01:43:52;;;;;;;17.25;11.45;;;7.90;99.90;;;;;;5096621;28;20035;-68
2024/02/13 01:46:39;;;;;;;18.20;11.38;;;7.90;99.90;;;;;;5095822;28;20075;-68
2024/02/13 01:49:28;;;;;;;14.52;9.32;;;7.90;99.90;;;;;;5103671;28;20148;-68
2024/02/13 01:52:14;;;;;;;17.45;10.85;;;7.80;99.90;;;;;;5097299;28;20043;-68
2024/02/13 01:55:02;;;;;;;17.13;10.73;;;7.90;99.90;;;;;;5105767;28;20039;-67
2024/02/13 01:57:49;;;;;;;16.33;10.02;;;7.80;99.90;;;;;;5098591;28;20036;-68
2024/02/13 02:00:35;;;;;;;19.85;11.60;;;7.80;99.90;;;;;;5080007;28;20044;-68
2024/02/13 02:03:22;;;;;;;18.45;11.35;;;7.80;99.90;;;;;;5086305;28;20043;-68
2024/02/13 02:06:09;;;;;;;17.73;10.73;;;7.90;99.90;;;;;;5098533;28;20078;-68
2024/02/13 02:08:56;;;;;;;17.30;11.30;;;7.90;99.90;;;;;;5084066;28;20433;-68
2024/02/13 02:11:42;;;;;;;22.90;10.85;;;7.90;99.90;;;;;;5100949;28;20043;-67
2024/02/13 02:14:28;;;;;;;20.88;11.10;;;7.80;99.90;;;;;;5096328;28;20081;-67
2024/02/13 02:17:14;;;;;;;15.00;10.52;;;7.90;99.90;;;;;;5100320;28;20051;-67
2024/02/13 02:20:00;;;;;;;17.20;9.93;;;7.90;99.90;;;;;;5098900;28;20145;-67
2024/02/13 02:22:47;;;;;;;18.20;11.50;;;7.90;99.90;;;;;;5091319;28;20040;-67
2024/02/13 02:25:33;;;;;;;14.85;10.00;;;8.00;99.90;;;;;;5103003;28;20483;-67
2024/02/13 02:28:19;;;;;;;17.83;10.55;;;8.00;99.90;;;;;;5091425;28;20085;-68
2024/02/13 02:31:05;;;;;;;17.17;10.32;;;8.00;99.90;;;;;;5103876;28;20040;-68
2024/02/13 02:33:51;;;;;;;24.05;13.00;;;8.00;99.90;;;;;;5102622;28;20039;-68
2024/02/13 02:36:37;;;;;;;15.30;9.93;;;8.00;99.90;;;;;;5098459;28;20032;-68
2024/02/13 02:39:24;;;;;;;15.68;10.13;;;7.90;99.90;;;;;;5099577;28;20040;-68
2024/02/13 02:42:09;;;;;;;17.38;10.25;;;7.90;99.90;;;;;;5097360;28;20071;-68
2024/02/13 02:44:55;;;;;;;14.02;8.95;;;7.90;99.90;;;;;;5100220;28;20130;-68
2024/02/13 02:47:42;;;;;;;17.92;9.40;;;7.90;99.90;;;;;;5092469;28;20105;-68
2024/02/13 02:50:28;;;;;;;17.23;9.75;;;7.80;99.90;;;;;;5051692;28;20055;-68
2024/02/13 02:53:14;;;;;;;21.65;9.75;;;7.90;99.90;;;;;;5053048;28;20485;-68
2024/02/13 02:56:21;;;;;;;14.63;8.32;;;7.80;99.90;;;;;;5032372;28;20064;-68
2024/02/13 02:59:06;;;;;;;13.55;8.57;;;7.90;99.90;;;;;;5033410;28;20263;-68
2024/02/13 03:01:53;;;;;;;14.40;7.97;;;7.80;99.90;;;;;;5036783;28;20087;-68
2024/02/13 03:04:39;;;;;;;11.82;8.68;;;7.80;99.90;;;;;;5037993;28;20155;-68
2024/02/13 03:07:25;;;;;;;18.05;9.02;;;7.80;99.90;;;;;;5023561;28;20087;-69
2024/02/13 03:10:11;;;;;;;13.90;8.00;;;7.80;99.90;;;;;;5041005;28;20144;-68
2024/02/13 03:12:58;;;;;;;11.70;7.50;;;7.80;99.90;;;;;;5035838;28;20078;-68
2024/02/13 03:15:44;;;;;;;13.77;8.30;;;7.80;99.90;;;;;;5039994;28;20052;-68
2024/02/13 03:18:32;;;;;;;13.60;8.18;;;7.80;99.90;;;;;;5035902;28;20045;-69
2024/02/13 03:21:18;;;;;;;15.13;7.95;;;7.90;99.90;;;;;;5032563;28;20091;-69
2024/02/13 03:24:05;;;;;;;14.00;8.10;;;7.80;99.90;;;;;;5039077;28;20052;-69
2024/02/13 03:26:51;;;;;;;10.75;6.53;;;7.80;99.90;;;;;;5047957;28;20072;-69
2024/02/13 03:29:37;;;;;;;11.98;7.10;;;7.80;99.90;;;;;;5053329;28;20053;-69
2024/02/13 03:32:23;;;;;;;9.73;6.88;;;7.80;99.90;;;;;;5066382;28;20041;-69
2024/02/13 03:35:09;;;;;;;11.90;6.63;;;7.90;99.90;;;;;;5060966;28;20041;-69
2024/02/13 03:37:55;;;;;;;13.00;7.13;;;7.90;99.90;;;;;;5065154;28;20045;-68
2024/02/13 03:40:41;;;;;;;11.57;6.40;;;7.90;99.90;;;;;;5062971;28;20044;-69
2024/02/13 03:43:27;;;;;;;10.43;6.15;;;7.90;99.90;;;;;;5065709;28;20040;-68
2024/02/13 03:46:13;;;;;;;11.68;6.20;;;8.00;99.90;;;;;;5070158;28;20052;-69
2024/02/13 03:48:59;;;;;;;10.18;6.25;;;8.00;99.90;;;;;;5068482;28;20468;-69
2024/02/13 03:51:45;;;;;;;10.05;6.68;;;8.00;99.90;;;;;;5105295;28;20048;-69
2024/02/13 03:54:31;;;;;;;8.82;5.70;;;8.00;99.90;;;;;;5091517;28;20051;-69
2024/02/13 03:57:16;;;;;;;10.27;6.07;;;8.00;99.90;;;;;;5092092;28;20050;-69
2024/02/13 04:00:05;;;;;;;10.63;5.70;;;8.10;99.90;;;;;;5093744;28;20036;-69
2024/02/13 04:02:51;;;;;;;7.82;5.40;;;8.10;99.90;;;;;;5094568;28;20063;-69
2024/02/13 04:05:38;;;;;;;8.27;5.10;;;8.10;99.90;;;;;;5094983;28;20046;-67
2024/02/13 04:08:26;;;;;;;8.73;5.18;;;8.20;99.90;;;;;;5077917;28;20063;-69
2024/02/13 04:11:13;;;;;;;6.80;4.63;;;8.10;99.90;;;;;;5100854;28;20507;-69
2024/02/13 04:13:59;;;;;;;8.93;5.22;;;8.20;99.90;;;;;;5098417;28;20040;-69
2024/02/13 04:16:45;;;;;;;11.73;4.78;;;8.20;99.90;;;;;;5095511;28;21096;-69
2024/02/13 04:19:31;;;;;;;6.75;4.63;;;8.20;99.90;;;;;;5097569;28;20474;-69
2024/02/13 04:22:17;;;;;;;6.65;4.40;;;8.20;99.90;;;;;;5089362;28;20127;-69
2024/02/13 04:25:03;;;;;;;6.75;4.28;;;8.20;99.90;;;;;;5094090;28;20383;-69
2024/02/13 04:27:49;;;;;;;8.52;4.90;;;8.10;99.90;;;;;;5091042;28;20040;-69
2024/02/13 04:30:40;;;;;;;8.57;4.35;;;8.20;99.90;;;;;;5089331;28;20044;-70
2024/02/13 04:33:26;;;;;;;7.35;4.28;;;8.20;99.90;;;;;;5083675;28;20058;-69
2024/02/13 04:36:13;;;;;;;7.88;3.35;;;8.20;99.90;;;;;;5109582;28;20050;-69
2024/02/13 04:38:59;;;;;;;5.82;3.75;;;8.20;99.90;;;;;;5093392;28;20488;-69
2024/02/13 04:41:46;;;;;;;8.18;4.03;;;8.10;99.90;;;;;;5101112;28;20399;-69
2024/02/13 04:44:32;;;;;;;7.43;4.00;;;8.10;99.90;;;;;;5100189;28;20123;-68
2024/02/13 04:47:18;;;;;;;10.25;5.00;;;8.10;99.90;;;;;;5092850;28;20044;-69
2024/02/13 04:50:06;;;;;;;7.88;5.03;;;8.20;99.90;;;;;;5096905;28;20055;-69
2024/02/13 04:52:52;;;;;;;8.07;4.35;;;8.10;99.90;;;;;;5089873;28;20042;-69
2024/02/13 04:55:38;;;;;;;6.05;4.10;;;8.10;99.90;;;;;;5100402;28;20052;-68
2024/02/13 04:58:30;;;;;;;5.65;4.03;;;8.20;99.90;;;;;;5106228;28;20068;-68
2024/02/13 05:01:16;;;;;;;6.07;3.50;;;8.20;99.90;;;;;;5094805;28;20062;-68
2024/02/13 05:10:04;;;;;;;5.45;3.15;;;8.10;99.90;;;;;;5104586;28;20384;-68
2024/02/13 05:12:52;;;;;;;5.82;3.53;;;8.10;99.90;;;;;;5105817;28;20499;-68
2024/02/13 05:15:38;;;;;;;5.22;3.75;;;8.00;99.90;;;;;;5101531;28;20043;-69
2024/02/13 05:18:24;;;;;;;7.40;4.55;;;7.90;99.90;;;;;;5108291;28;20027;-68
2024/02/13 05:21:10;;;;;;;6.00;3.50;;;8.00;99.90;;;;;;5097067;28;20039;-68
2024/02/13 05:23:56;;;;;;;5.55;4.20;;;8.00;99.90;;;;;;5094149;28;20073;-69
2024/02/13 05:26:43;;;;;;;6.72;3.88;;;8.00;99.90;;;;;;5094495;28;20040;-69
2024/02/13 05:29:29;;;;;;;7.07;4.25;;;8.00;99.90;;;;;;5101412;28;20051;-68
2024/02/13 05:32:16;;;;;;;6.07;3.63;;;8.00;99.90;;;;;;5091952;28;20028;-69
2024/02/13 05:35:03;;;;;;;7.30;4.03;;;7.90;99.90;;;;;;5093022;28;20097;-68
2024/02/13 05:37:51;;;;;;;6.72;3.78;;;7.90;99.90;;;;;;5093420;28;20089;-68
2024/02/13 05:40:42;;;;;;;6.95;3.83;;;7.90;99.90;;;;;;5097827;28;20043;-68
2024/02/13 05:43:28;;;;;;;6.78;4.30;;;7.90;99.90;;;;;;5091934;28;20044;-69
2024/02/13 05:46:14;;;;;;;7.45;4.38;;;7.90;99.90;;;;;;5092983;28;20131;-69
2024/02/13 05:49:00;;;;;;;6.10;4.28;;;7.80;99.90;;;;;;5087656;28;20464;-68
2024/02/13 05:51:46;;;;;;;6.35;4.50;;;7.90;99.90;;;;;;5098776;28;20044;-68
2024/02/13 05:54:33;;;;;;;6.95;4.78;;;7.90;99.90;;;;;;5096514;28;20119;-68
2024/02/13 05:57:19;;;;;;;6.45;4.53;;;7.90;99.90;;;;;;5093075;28;20426;-68
2024/02/13 06:00:09;;;;;;;7.38;4.50;;;7.90;99.90;;;;;;5094479;28;20040;-69
2024/02/13 06:02:55;;;;;;;6.88;5.05;;;7.90;99.90;;;;;;5096396;28;20578;-68
2024/02/13 06:05:41;;;;;;;10.15;4.95;;;7.80;99.90;;;;;;5094265;28;20051;-68
2024/02/13 06:08:27;;;;;;;9.10;5.93;;;7.80;99.90;;;;;;5097728;28;20047;-68
2024/02/13 06:11:14;;;;;;;8.60;5.60;;;7.80;99.90;;;;;;5098019;28;20055;-68
2024/02/13 06:14:00;;;;;;;9.52;6.22;;;7.80;99.90;;;;;;5096443;28;20031;-68
2024/02/13 06:16:46;;;;;;;10.02;6.22;;;7.80;99.90;;;;;;5096198;28;20079;-67
2024/02/13 06:19:32;;;;;;;8.77;6.03;;;7.80;99.90;;;;;;5102574;28;21540;-67
2024/02/13 06:22:17;;;;;;;8.20;5.47;;;7.80;99.90;;;;;;5106874;28;20067;-67
2024/02/13 06:25:05;;;;;;;7.38;5.68;;;7.70;99.90;;;;;;5104422;28;20031;-68
2024/02/13 06:27:51;;;;;;;9.15;6.22;;;7.80;99.90;;;;;;5097078;28;20081;-68
2024/02/13 06:30:39;;;;;;;8.90;5.63;;;7.80;99.90;;;;;;5107804;28;20058;-68
2024/02/13 06:33:25;;;;;;;8.35;5.40;;;7.80;99.90;;;;;;5100313;28;20028;-68
2024/02/13 06:36:11;;;;;;;9.50;5.88;;;7.70;99.90;;;;;;5097623;28;20039;-68
2024/02/13 06:38:57;;;;;;;9.10;6.40;;;7.80;99.90;;;;;;5096610;28;20063;-68
2024/02/13 06:41:43;;;;;;;11.27;6.57;;;7.80;99.90;;;;;;5100579;28;20035;-68
2024/02/13 06:44:31;;;;;;;8.35;6.15;;;7.80;99.90;;;;;;5096852;28;20036;-70
2024/02/13 06:47:17;;;;;;;9.75;6.13;;;7.90;99.90;;;;;;5095039;28;20480;-68
2024/02/13 06:50:07;;;;;;;9.77;5.70;;;7.90;99.90;;;;;;5100078;28;20052;-68
2024/02/13 06:52:55;;;;;;;17.45;6.80;;;8.00;99.90;;;;;;5084493;28;20040;-66
2024/02/13 06:55:42;;;;;;;9.30;5.93;;;7.90;99.90;;;;;;5100755;28;20043;-68
2024/02/13 06:58:28;;;;;;;10.25;6.15;;;7.90;99.90;;;;;;5095643;28;20077;-67
2024/02/13 07:01:14;;;;;;;13.13;6.97;;;8.00;99.90;;;;;;5097688;28;20077;-65
2024/02/13 07:04:00;;;;;;;9.77;6.25;;;8.00;99.90;;;;;;5095218;28;20126;-64
2024/02/13 07:06:46;;;;;;;11.27;6.30;;;8.00;99.90;;;;;;5094890;28;20052;-63
2024/02/13 07:09:33;;;;;;;8.95;5.57;;;8.00;99.90;;;;;;5088329;28;20052;-65
2024/02/13 07:12:20;;;;;;;10.35;6.45;;;8.00;99.90;;;;;;5099472;28;20396;-64
2024/02/13 07:15:06;;;;;;;9.73;6.28;;;8.10;99.90;;;;;;5096948;28;20131;-63
2024/02/13 07:17:52;;;;;;;11.68;6.43;;;8.10;99.90;;;;;;5089742;28;20036;-65
2024/02/13 07:20:38;;;;;;;9.82;7.00;;;8.20;99.90;;;;;;5076765;28;20442;-64
2024/02/13 07:23:24;;;;;;;9.38;5.97;;;8.20;99.90;;;;;;5090554;28;20559;-63
2024/02/13 07:26:11;;;;;;;10.25;6.53;;;8.20;99.90;;;;;;5096865;28;20052;-62
2024/02/13 07:28:57;;;;;;;9.65;6.07;;;8.30;99.90;;;;;;5098674;28;20039;-63
2024/02/13 07:31:43;;;;;;;11.10;6.13;;;8.30;99.90;;;;;;5103710;28;20437;-63
2024/02/13 07:34:33;;;;;;;9.10;5.82;;;8.30;99.90;;;;;;5091834;28;20111;-63
2024/02/13 07:37:19;;;;;;;9.75;5.90;;;8.40;99.90;;;;;;5091211;28;20047;-63
2024/02/13 07:40:06;;;;;;;7.75;5.65;;;8.40;99.90;;;;;;5077505;28;20040;-63
2024/02/13 07:42:53;;;;;;;14.02;6.90;;;8.40;99.90;;;;;;5095655;28;20042;-63
2024/02/13 07:45:39;;;;;;;10.25;6.35;;;8.40;99.90;;;;;;5084060;28;20047;-64
2024/02/13 07:48:25;;;;;;;10.38;6.03;;;8.50;99.90;;;;;;5095346;28;20058;-63
2024/02/13 07:51:11;;;;;;;9.85;6.35;;;8.50;99.90;;;;;;5096650;28;20059;-65
2024/02/13 07:53:57;;;;;;;11.40;6.03;;;8.50;99.90;;;;;;5104562;28;20057;-67
2024/02/13 07:56:43;;;;;;;9.40;6.55;;;8.60;99.90;;;;;;5089827;28;20514;-66
2024/02/13 07:59:29;;;;;;;10.75;6.72;;;8.60;99.90;;;;;;5097980;28;20031;-65
2024/02/13 08:02:15;;;;;;;10.63;6.25;;;8.60;99.90;;;;;;5094369;28;20039;-65
2024/02/13 08:05:02;;;;;;;8.85;6.80;;;8.70;99.90;;;;;;5102918;28;20043;-65
2024/02/13 08:07:48;;;;;;;12.55;6.75;;;8.70;99.90;;;;;;5102550;28;20043;-65
2024/02/13 08:10:35;;;;;;;12.00;7.15;;;8.70;99.90;;;;;;5094293;28;20048;-65
2024/02/13 08:13:21;;;;;;;9.57;6.78;;;8.80;99.90;;;;;;5091587;28;20036;-65
2024/02/13 08:16:07;;;;;;;10.57;6.30;;;8.80;99.90;;;;;;5096729;28;20479;-65
2024/02/13 08:18:53;;;;;;;9.25;6.00;;;8.80;99.90;;;;;;5098817;28;20036;-63
2024/02/13 08:21:39;;;;;;;8.13;6.10;;;8.90;99.90;;;;;;5092722;28;20062;-65
2024/02/13 08:24:25;;;;;;;9.93;7.05;;;8.90;99.90;;;;;;5093485;28;20032;-62
2024/02/13 08:27:11;;;;;;;15.13;7.63;;;8.90;99.90;;;;;;5095293;27;20050;-62
2024/02/13 08:29:57;;;;;;;12.32;7.47;;;9.00;99.90;;;;;;5101782;28;20047;-63
2024/02/13 08:32:44;;;;;;;11.00;7.20;;;9.00;99.90;;;;;;5091976;28;20465;-63
2024/02/13 08:35:30;;;;;;;10.95;7.22;;;9.00;99.90;;;;;;5100964;28;20086;-62
2024/02/13 08:38:17;;;;;;;10.32;7.10;;;9.10;99.90;;;;;;5097280;28;20044;-63
2024/02/13 08:41:04;;;;;;;10.93;6.60;;;9.10;99.90;;;;;;5106492;28;20055;-64
2024/02/13 08:43:51;;;;;;;10.70;6.65;;;9.10;99.90;;;;;;5096421;28;20043;-63
2024/02/13 08:46:36;;;;;;;10.45;5.97;;;9.10;99.90;;;;;;5103396;28;20051;-63
2024/02/13 08:49:22;;;;;;;11.15;6.97;;;9.10;99.90;;;;;;5103837;28;20051;-63
2024/02/13 08:52:10;;;;;;;10.60;6.45;;;9.20;99.90;;;;;;5109436;28;20040;-63
2024/02/13 08:54:57;;;;;;;11.48;6.00;;;9.20;99.90;;;;;;5102456;28;20095;-63
2024/02/13 08:57:42;;;;;;;7.80;5.32;;;9.20;99.90;;;;;;5102067;28;20047;-63
2024/02/13 09:00:29;;;;;;;10.23;6.10;;;9.20;99.90;;;;;;5100285;28;20389;-63
2024/02/13 09:03:14;;;;;;;9.27;6.60;;;9.30;99.90;;;;;;5104605;28;20044;-63
2024/02/13 09:06:04;;;;;;;8.40;6.47;;;9.30;99.90;;;;;;5103063;28;20035;-63
2024/02/13 09:08:50;;;;;;;8.55;5.20;;;9.30;99.90;;;;;;5101104;28;20081;-63
2024/02/13 09:11:36;;;;;;;9.38;5.63;;;9.30;99.90;;;;;;5098994;28;20028;-63
2024/02/13 09:14:22;;;;;;;7.60;5.78;;;9.30;99.90;;;;;;5093628;28;20044;-63
2024/02/13 09:17:08;;;;;;;9.90;4.80;;;9.40;99.90;;;;;;5100716;28;20044;-63
2024/02/13 09:19:54;;;;;;;10.82;5.38;;;9.40;99.90;;;;;;5094095;28;20035;-63
2024/02/13 09:22:44;;;;;;;9.13;5.47;;;9.50;99.90;;;;;;5092220;28;20089;-63
2024/02/13 09:25:30;;;;;;;10.60;5.30;;;9.50;99.90;;;;;;5092541;28;20040;-63
2024/02/13 09:28:16;;;;;;;8.63;5.30;;;9.60;99.90;;;;;;5097477;28;20044;-63
2024/02/13 09:31:03;;;;;;;10.48;4.90;;;9.60;99.90;;;;;;5100972;28;20092;-63
2024/02/13 09:33:49;;;;;;;10.43;5.20;;;9.70;99.90;;;;;;5092561;28;20126;-63
2024/02/13 09:36:37;;;;;;;8.65;5.40;;;9.70;99.90;;;;;;5103968;28;20048;-63
2024/02/13 09:39:24;;;;;;;6.68;5.20;;;9.70;99.90;;;;;;5103639;28;20454;-63
2024/02/13 09:42:16;;;;;;;14.77;5.22;;;9.70;99.90;;;;;;5101979;28;20406;-63
2024/02/13 09:45:05;;;;;;;7.82;5.35;;;9.80;99.90;;;;;;5095833;28;20040;-63
2024/02/13 09:47:52;;;;;;;8.70;4.57;;;9.80;99.90;;;;;;5093867;28;20036;-63
2024/02/13 09:50:43;;;;;;;8.57;5.43;;;9.80;99.90;;;;;;5092957;28;20188;-63
2024/02/13 09:53:29;;;;;;;11.02;5.63;;;9.80;99.90;;;;;;5093997;28;20130;-62
2024/02/13 09:56:16;;;;;;;8.75;5.65;;;9.80;99.90;;;;;;5098101;28;20040;-63
2024/02/13 09:59:03;;;;;;;9.63;5.50;;;9.80;99.90;;;;;;5096298;28;20058;-63
2024/02/13 10:01:49;;;;;;;9.43;5.35;;;9.80;99.90;;;;;;5101065;28;20118;-63
2024/02/13 10:04:36;;;;;;;37.08;22.00;;;9.80;99.90;;;;;;5095781;28;20169;-63
2024/02/13 10:07:22;;;;;;;19.15;7.53;;;9.90;99.90;;;;;;5093674;28;20123;-63
2024/02/13 10:10:12;;;;;;;16.60;9.52;;;9.90;99.90;;;;;;5104446;28;20047;-63
2024/02/13 10:13:00;;;;;;;83.47;43.55;;;9.90;99.90;;;;;;5101926;27;20136;-63
2024/02/13 10:15:46;;;;;;;20.50;9.38;;;10.00;99.90;;;;;;5104563;27;20077;-63
2024/02/13 10:18:33;;;;;;;10.65;7.03;;;10.10;99.90;;;;;;5101628;27;20048;-64
2024/02/13 10:21:22;;;;;;;20.85;11.75;;;10.10;99.90;;;;;;5099198;28;20097;-63
2024/02/13 10:24:13;;;;;;;17.92;8.75;;;10.20;99.90;;;;;;5099913;28;20046;-64
2024/02/13 10:27:00;;;;;;;9.02;5.18;;;10.20;99.90;;;;;;5093293;28;20486;-63
2024/02/13 10:29:46;;;;;;;6.55;4.53;;;10.20;99.90;;;;;;5095909;28;20056;-63
2024/02/13 10:32:38;;;;;;;8.75;4.82;;;10.30;99.90;;;;;;5105195;28;20047;-63
2024/02/13 10:35:24;;;;;;;5.63;4.03;;;10.40;99.90;;;;;;5099551;27;20070;-63
2024/02/13 10:38:10;;;;;;;6.65;4.00;;;10.40;99.90;;;;;;5097244;28;20081;-64
2024/02/13 10:40:57;;;;;;;9.25;4.65;;;10.50;99.80;;;;;;5097394;28;20527;-64
2024/02/13 10:43:43;;;;;;;8.05;3.85;;;10.60;99.60;;;;;;5096662;28;20106;-64
2024/02/13 10:46:38;;;;;;;8.63;4.28;;;10.60;99.40;;;;;;5095336;28;20449;-64
2024/02/13 10:49:24;;;;;;;4.68;2.70;;;10.60;99.20;;;;;;5096804;28;20047;-64
2024/02/13 10:52:12;;;;;;;4.45;3.05;;;10.60;99.20;;;;;;5096806;28;20036;-64
2024/02/13 10:55:05;;;;;;;7.47;2.95;;;10.70;99.00;;;;;;5093657;28;20093;-64
2024/02/13 10:57:52;;;;;;;3.70;2.50;;;10.70;98.80;;;;;;5096793;28;20133;-64
2024/02/13 11:00:39;;;;;;;5.53;2.50;;;10.80;98.80;;;;;;5098660;28;20071;-64
2024/02/13 11:03:29;;;;;;;4.40;2.15;;;10.80;98.60;;;;;;5094410;28;20032;-64
2024/02/13 11:06:15;;;;;;;5.57;2.92;;;10.90;98.40;;;;;;5092964;28;20130;-64
2024/02/13 11:09:01;;;;;;;4.47;2.60;;;10.90;98.40;;;;;;5089876;28;20039;-64
2024/02/13 11:11:47;;;;;;;4.88;2.78;;;11.00;98.20;;;;;;5097659;28;20256;-63
2024/02/13 11:14:33;;;;;;;4.00;2.50;;;11.10;98.00;;;;;;5097671;28;20047;-64
2024/02/13 11:17:20;;;;;;;7.80;2.95;;;11.10;97.90;;;;;;5100580;28;20055;-63
2024/02/13 11:20:09;;;;;;;5.55;2.30;;;11.20;97.80;;;;;;5091545;28;20432;-64
2024/02/13 11:22:57;;;;;;;3.97;2.08;;;11.20;97.70;;;;;;5098207;28;20038;-64
2024/02/13 11:26:02;;;;;;;7.25;2.55;;;11.30;97.40;;;;;;5095304;28;20032;-64
2024/02/13 11:28:49;;;;;;;;;;;11.40;97.30;;;;;;5103680;28;20055;-64
2024/02/13 11:31:35;;;;;;;4.10;1.98;;;11.40;97.90;;;;;;5089400;28;20275;-64
2024/02/13 11:34:36;;;;;;;8.85;2.60;;;11.30;97.40;;;;;;5092754;28;20062;-64
2024/02/13 11:37:27;;;;;;;3.92;2.10;;;11.40;97.10;;;;;;5092885;28;20036;-64
2024/02/13 11:40:17;;;;;;;3.67;1.90;;;11.30;96.90;;;;;;5093528;28;20040;-64
2024/02/13 11:43:04;;;;;;;4.10;1.55;;;11.30;96.70;;;;;;5099155;28;20047;-64
2024/02/13 11:45:51;;;;;;;7.90;2.20;;;11.20;96.50;;;;;;5102605;28;20036;-64
2024/02/13 11:48:38;;;;;;;4.63;3.05;;;11.20;96.40;;;;;;5090478;28;20393;-63
2024/02/13 11:51:24;;;;;;;3.55;2.17;;;11.20;96.30;;;;;;5093433;28;20035;-64
2024/02/13 11:54:10;;;;;;;5.05;2.30;;;11.10;96.20;;;;;;5100812;28;20048;-64
2024/02/13 11:56:56;;;;;;;4.25;2.08;;;11.10;96.10;;;;;;5096386;28;20079;-64
2024/02/13 11:59:42;;;;;;;6.57;2.55;;;11.10;96.00;;;;;;5095422;28;20123;-64
2024/02/13 12:02:29;;;;;;;4.45;2.45;;;11.10;96.00;;;;;;5094206;28;20135;-64
2024/02/13 12:05:16;;;;;;;3.95;1.95;;;11.20;95.90;;;;;;5100518;28;20043;-64
2024/02/13 12:08:03;;;;;;;3.47;1.85;;;11.20;95.80;;;;;;5092644;28;20048;-64
2024/02/13 12:10:49;;;;;;;6.75;1.70;;;11.20;95.60;;;;;;5092547;28;20338;-64
2024/02/13 12:13:36;;;;;;;4.43;1.67;;;11.20;95.50;;;;;;5084876;28;20039;-65
2024/02/13 12:16:23;;;;;;;3.97;1.80;;;11.20;95.40;;;;;;5090270;28;20171;-63
2024/02/13 12:19:10;;;;;;;4.30;2.10;;;11.20;95.40;;;;;;5097020;28;20143;-64
2024/02/13 12:22:04;;;;;;;5.47;2.03;;;11.30;95.40;;;;;;5087606;28;20044;-64
2024/02/13 12:24:50;;;;;;;4.63;2.00;;;11.30;95.30;;;;;;5067690;28;20040;-64
2024/02/13 12:27:36;;;;;;;3.13;1.60;;;11.30;95.20;;;;;;5097561;28;20046;-64
2024/02/13 12:30:22;;;;;;;4.35;1.83;;;11.40;95.20;;;;;;5093043;28;20052;-64
2024/02/13 12:33:09;;;;;;;4.35;1.98;;;11.40;95.00;;;;;;5087436;28;20044;-65
2024/02/13 12:36:00;;;;;;;6.32;2.28;;;11.40;94.90;;;;;;5087629;28;20048;-65
2024/02/13 12:38:46;;;;;;;4.32;1.92;;;11.40;94.80;;;;;;5089754;28;20036;-64
2024/02/13 12:41:32;;;;;;;3.70;1.67;;;11.50;94.80;;;;;;5092187;28;20055;-64
2024/02/13 12:44:20;;;;;;;3.80;1.83;;;11.50;94.70;;;;;;5093856;28;20036;-64
2024/02/13 12:47:13;;;;;;;5.78;2.90;;;11.60;94.60;;;;;;5091349;28;20055;-64
2024/02/13 12:49:59;;;;;;;5.47;2.00;;;11.60;94.50;;;;;;5091245;28;20043;-64
2024/02/13 12:52:44;;;;;;;3.10;1.80;;;11.70;94.50;;;;;;5091611;28;20527;-64
2024/02/13 12:55:32;;;;;;;5.18;2.17;;;11.70;94.40;;;;;;5091315;28;20082;-64
2024/02/13 12:58:18;;;;;;;4.97;1.70;;;11.80;94.40;;;;;;5097921;28;20366;-63
2024/02/13 13:01:04;;;;;;;4.47;2.05;;;11.80;94.30;;;;;;5097296;28;20048;-64
2024/02/13 13:03:50;;;;;;;4.35;2.20;;;11.90;94.30;;;;;;5097922;28;20039;-64
2024/02/13 13:06:36;;;;;;;3.22;1.70;;;12.00;94.10;;;;;;5110095;28;20044;-63
2024/02/13 13:09:22;;;;;;;5.65;1.80;;;12.00;94.00;;;;;;5097684;28;20036;-63
2024/02/13 13:12:10;;;;;;;3.42;1.50;;;12.00;94.10;;;;;;5093656;28;20035;-64
2024/02/13 13:14:57;;;;;;;3.92;1.85;;;12.00;93.70;;;;;;5100953;28;20041;-68
2024/02/13 13:17:44;;;;;;;3.20;1.73;;;12.00;93.60;;;;;;5095185;28;20079;-64
2024/02/13 13:20:30;;;;;;;4.50;1.90;;;12.00;93.40;;;;;;5098505;28;20035;-63
2024/02/13 13:23:16;;;;;;;5.75;2.35;;;12.00;93.30;;;;;;5095281;28;20043;-64
2024/02/13 13:26:02;;;;;;;3.10;1.70;;;12.00;93.30;;;;;;5096234;28;20040;-65
2024/02/13 13:28:49;;;;;;;4.75;2.65;;;12.00;93.30;;;;;;5097186;28;20027;-64
2024/02/13 13:31:41;;;;;;;5.53;2.00;;;12.10;93.30;;;;;;5108788;28;20055;-65
2024/02/13 13:34:27;;;;;;;7.25;3.63;;;12.10;93.00;;;;;;5095612;28;20050;-64
2024/02/13 13:37:14;;;;;;;7.30;4.28;;;12.10;93.00;;;;;;5084168;28;20425;-64
2024/02/13 13:40:04;;;;;;;7.85;3.42;;;12.10;93.10;;;;;;5096355;28;20556;-64
2024/02/13 13:42:50;;;;;;;7.65;3.90;;;12.00;93.00;;;;;;5096494;28;20036;-64
2024/02/13 13:45:40;;;;;;;8.50;4.47;;;12.10;92.90;;;;;;5097322;28;20495;-63
2024/02/13 16:35:10;;;;;;;6.10;3.25;;;10.70;92.80;;;;;;5058740;28;20060;-63
2024/02/13 16:37:57;;;;;;;5.60;3.35;;;10.70;92.90;;;;;;5099585;28;20059;-63
2024/02/13 16:40:44;;;;;;;5.65;3.35;;;10.60;92.90;;;;;;5105770;28;20353;-64
2024/02/13 16:43:29;;;;;;;5.43;3.47;;;10.60;93.00;;;;;;5094516;28;20054;-63
2024/02/13 16:46:21;;;;;;;9.43;5.00;;;10.50;93.10;;;;;;5100102;28;20447;-63
2024/02/13 16:49:11;;;;;;;9.52;5.30;;;10.50;93.10;;;;;;5098617;28;20040;-64
2024/02/13 16:51:57;;;;;;;11.32;6.05;;;10.40;93.10;;;;;;5103784;28;20048;-64
2024/02/13 16:54:43;;;;;;;10.45;5.57;;;10.40;93.20;;;;;;5093776;28;20089;-63
2024/02/13 16:57:29;;;;;;;10.73;5.45;;;10.30;93.20;;;;;;5101134;28;20034;-63
2024/02/13 17:00:16;;;;;;;14.60;6.25;;;10.30;93.30;;;;;;5110216;28;20039;-63
2024/02/13 17:03:05;;;;;;;9.85;6.15;;;10.30;93.30;;;;;;5098968;28;20032;-64
2024/02/13 17:05:52;;;;;;;15.20;7.25;;;10.20;93.40;;;;;;5113811;28;20126;-63
2024/02/13 17:08:38;;;;;;;16.48;8.13;;;10.10;93.40;;;;;;5093879;28;20093;-64
2024/02/13 17:11:24;;;;;;;12.70;7.53;;;10.10;93.40;;;;;;5099462;28;20048;-66
2024/02/13 17:14:10;;;;;;;12.30;6.97;;;10.10;93.40;;;;;;5095879;28;20050;-65
2024/02/13 17:16:56;;;;;;;14.45;5.53;;;10.00;93.40;;;;;;5096257;28;20123;-63
2024/02/13 17:19:43;;;;;;;10.55;5.97;;;10.00;93.40;;;;;;5091639;28;20051;-63
2024/02/13 17:22:29;;;;;;;9.38;5.65;;;10.00;93.50;;;;;;5092153;28;20239;-63